Flight Number: EUR2429 Duration: 6:00
Departure: Casablanca Int'l (GMMN) at 06:00 Distance: 2562 Nm
Arrival: Jeddah King Abdul Aziz (OEJN) at 12:00 Equipment: B757-200

Weather Information
Nouasseur, Morocco (GMMN) 33-22N 007-35W 206M Aug 17, 2018 - 05:00 PM EDT / 2018.08.17 2100 UTC
Wind: from the NE (040 degrees) at 9 MPH (8 KT):0
Visibility: greater than 7 mile(s):0
Sky conditions: partly cloudy Temperature: 71 F (22 C) Dew Point: 68 F (20 C) Relative Humidity: 88% Pressure (altimeter): 30.00 in. Hg (1016 hPa)
ob: GMMN 172100Z 04008KT 9999 SCT016 22/20 Q1016 NOSIG cycle: 21
Sunrise: 05:57 Sunset: 19:11 (UTC)

Jeddah King Abdul Aziz International Airport , Saudi Arabia (OEJN) 21-42N 039-11E 17M Aug 17, 2018 - 05:00 PM EDT / 2018.08.17 2100 UTC
Wind: from the N (350 degrees) at 5 MPH (4 KT):0
Visibility: greater than 7 mile(s):0 Temperature: 89 F (32 C) Dew Point: 66 F (19 C) Relative Humidity: 46% Pressure (altimeter): 29.59 in. Hg (1002 hPa)
ob: OEJN 172100Z 35004KT CAVOK 32/19 Q1002 NOSIG cycle: 21
Sunrise: 03:04 Sunset: 15:49 (UTC)

TAF:2018/08/17 18:03 TAF OEJN 171700Z 1718/1824 04006KT 7000 NSC BECMG 1722/1724 VRB03KT BECMG 1806/1808 27014KT

This route has never been flown.

Route map